Time;durP1;ratioP1;P1;durP2;ratioP2;P2;SDS_P1;SDS_P2;PMS_P1;PMS_P2;Temp;Humidity;BMP_temperature;BMP_pressure;BME280_temperature;BME280_humidity;BME280_pressure;Samples;Min_cycle;Max_cycle;Signal;HPM_P1;HPM_P2
2023/08/03 00:00:38;;;;;;;1.95;0.20;;;17.90;99.90;;;;;;5052518;28;20421;-80
2023/08/03 00:03:05;;;;;;;1.90;0.30;;;17.90;99.90;;;;;;5051228;28;20033;-80
2023/08/03 00:05:31;;;;;;;0.98;0.10;;;17.90;99.90;;;;;;5053359;28;20125;-81
2023/08/03 00:07:57;;;;;;;1.27;0.20;;;17.90;99.90;;;;;;5055554;28;20059;-80
2023/08/03 00:10:22;;;;;;;1.45;0.20;;;17.90;99.90;;;;;;5055938;28;20071;-81
2023/08/03 00:12:50;;;;;;;2.92;0.30;;;17.90;99.90;;;;;;5056104;28;20037;-80
2023/08/03 00:15:16;;;;;;;2.47;0.30;;;17.80;99.90;;;;;;5054726;28;20043;-79
2023/08/03 00:17:43;;;;;;;1.60;0.30;;;17.70;99.90;;;;;;5054973;28;20048;-78
2023/08/03 00:20:09;;;;;;;0.98;0.20;;;17.70;99.90;;;;;;5055972;28;20031;-78
2023/08/03 00:22:35;;;;;;;1.85;0.25;;;17.70;99.90;;;;;;5056010;28;20029;-79
2023/08/03 00:25:01;;;;;;;1.13;0.20;;;17.70;99.90;;;;;;5055892;28;20119;-80
2023/08/03 00:27:27;;;;;;;2.60;0.20;;;17.70;99.90;;;;;;5054349;28;20195;-77
2023/08/03 00:29:53;;;;;;;2.22;0.30;;;17.70;99.90;;;;;;5055777;28;20059;-78
2023/08/03 00:32:19;;;;;;;1.52;0.30;;;17.70;99.90;;;;;;5055714;28;20052;-77
2023/08/03 00:34:45;;;;;;;3.67;0.40;;;17.70;99.90;;;;;;5055904;28;20028;-77
2023/08/03 00:37:12;;;;;;;3.08;0.30;;;17.70;99.90;;;;;;5055565;28;20025;-77
2023/08/03 00:39:37;;;;;;;2.88;0.30;;;17.70;99.90;;;;;;5055400;28;20041;-78
2023/08/03 00:42:04;;;;;;;3.53;0.30;;;17.80;99.90;;;;;;5055795;28;20469;-77
2023/08/03 00:44:30;;;;;;;1.40;0.20;;;17.80;99.90;;;;;;5050686;28;20032;-78
2023/08/03 00:46:56;;;;;;;2.05;0.30;;;17.80;99.90;;;;;;5035654;28;20041;-76
2023/08/03 00:49:27;;;;;;;1.58;0.30;;;17.80;99.90;;;;;;5035586;28;20124;-78
2023/08/03 00:51:57;;;;;;;0.95;0.40;;;17.80;99.90;;;;;;5035713;28;20084;-77
2023/08/03 00:54:23;;;;;;;0.90;0.20;;;17.80;99.90;;;;;;5035332;28;20029;-77
2023/08/03 00:56:49;;;;;;;2.42;0.55;;;17.80;99.90;;;;;;5035681;28;20045;-81
2023/08/03 00:59:14;;;;;;;4.53;0.52;;;17.80;99.90;;;;;;5050834;28;20026;-81
2023/08/03 01:01:41;;;;;;;3.00;0.57;;;17.80;99.90;;;;;;5035042;28;20034;-81
2023/08/03 01:04:06;;;;;;;2.17;0.47;;;17.80;99.90;;;;;;5050665;28;20044;-81
2023/08/03 01:06:32;;;;;;;2.30;0.70;;;17.80;99.90;;;;;;5033926;28;20041;-80
2023/08/03 01:09:00;;;;;;;4.45;0.98;;;17.80;99.90;;;;;;5034815;28;20037;-80
2023/08/03 01:11:29;;;;;;;4.65;1.02;;;17.80;99.90;;;;;;5035342;28;20038;-80
2023/08/03 01:13:56;;;;;;;3.85;1.45;;;17.80;99.90;;;;;;5035409;28;20038;-79
2023/08/03 01:16:25;;;;;;;2.45;1.27;;;17.80;99.90;;;;;;5033634;28;20049;-79
2023/08/03 01:18:51;;;;;;;4.10;1.50;;;17.80;99.90;;;;;;5035042;28;20525;-79
2023/08/03 01:21:18;;;;;;;4.47;1.38;;;17.80;99.90;;;;;;5034955;28;20105;-78
2023/08/03 01:23:44;;;;;;;3.38;1.08;;;17.80;99.90;;;;;;5035198;28;20061;-78
2023/08/03 01:26:10;;;;;;;3.30;1.00;;;17.70;99.90;;;;;;5034782;28;20486;-78
2023/08/03 01:28:36;;;;;;;4.55;0.75;;;17.70;99.90;;;;;;5034689;28;20427;-79
2023/08/03 01:31:02;;;;;;;3.95;0.65;;;17.70;99.90;;;;;;5033869;28;20425;-79
2023/08/03 01:33:28;;;;;;;3.65;0.30;;;17.60;99.90;;;;;;5033763;28;20061;-80
2023/08/03 01:35:53;;;;;;;2.90;0.30;;;17.60;99.90;;;;;;5034947;28;20474;-79
2023/08/03 01:38:19;;;;;;;2.92;0.30;;;17.60;99.90;;;;;;5034710;28;20033;-81
2023/08/03 01:40:45;;;;;;;1.73;0.30;;;17.60;99.90;;;;;;5033147;28;20033;-80
2023/08/03 01:43:10;;;;;;;2.08;0.25;;;17.70;99.90;;;;;;5035569;28;20037;-79
2023/08/03 01:45:36;;;;;;;4.00;0.28;;;17.70;99.90;;;;;;5035809;28;20512;-80
2023/08/03 01:48:02;;;;;;;2.35;0.35;;;17.60;99.90;;;;;;5036148;28;20075;-80
2023/08/03 01:50:28;;;;;;;2.97;0.60;;;17.70;99.90;;;;;;5033996;28;20029;-81
2023/08/03 01:52:54;;;;;;;2.97;0.32;;;17.70;99.90;;;;;;5033386;28;20030;-80
2023/08/03 01:55:20;;;;;;;2.78;0.47;;;17.70;99.90;;;;;;5034882;28;20517;-80
2023/08/03 01:57:45;;;;;;;7.68;1.33;;;17.70;99.90;;;;;;5033290;28;20030;-82
2023/08/03 02:00:11;;;;;;;5.63;0.98;;;17.70;99.90;;;;;;5034464;28;20470;-81
2023/08/03 02:02:37;;;;;;;3.90;0.90;;;17.80;99.90;;;;;;5034516;28;20068;-81
2023/08/03 02:05:03;;;;;;;5.03;1.05;;;17.70;99.90;;;;;;5049249;28;20095;-81
2023/08/03 02:08:01;;;;;;;8.82;1.30;;;17.80;99.90;;;;;;5034310;28;20120;-81
2023/08/03 02:10:27;;;;;;;8.43;1.67;;;17.90;99.90;;;;;;5010810;28;20041;-81
2023/08/03 02:12:52;;;;;;;7.18;1.60;;;17.90;99.90;;;;;;5034156;28;20034;-82
2023/08/03 02:15:18;;;;;;;7.53;1.63;;;17.80;99.90;;;;;;5032583;28;20113;-81
2023/08/03 02:17:44;;;;;;;11.20;2.42;;;17.90;99.90;;;;;;5034097;28;20367;-81
2023/08/03 02:20:11;;;;;;;7.97;2.13;;;17.90;99.90;;;;;;5033917;28;20030;-81
2023/08/03 02:22:36;;;;;;;9.65;2.00;;;17.90;99.90;;;;;;5033954;28;20038;-82
2023/08/03 02:25:03;;;;;;;5.75;1.88;;;18.00;99.90;;;;;;5032561;28;20099;-82
2023/08/03 02:27:28;;;;;;;11.38;2.88;;;18.00;99.90;;;;;;5033155;28;20083;-81
2023/08/03 02:29:54;;;;;;;8.55;1.75;;;18.00;99.90;;;;;;5033285;28;20093;-80
2023/08/03 02:32:21;;;;;;;6.05;1.40;;;18.00;99.90;;;;;;5033766;28;20113;-81
2023/08/03 02:34:47;;;;;;;8.27;2.08;;;18.10;99.90;;;;;;5036033;28;20036;-81
2023/08/03 02:37:13;;;;;;;8.00;2.08;;;18.10;99.90;;;;;;5053513;28;20393;-82
2023/08/03 02:39:38;;;;;;;9.07;2.20;;;18.10;99.90;;;;;;5052891;28;20437;-81
2023/08/03 02:42:04;;;;;;;6.10;2.03;;;18.10;99.90;;;;;;5051750;28;20036;-82
2023/08/03 02:44:31;;;;;;;6.55;1.98;;;18.10;99.90;;;;;;5053502;28;20116;-81
2023/08/03 02:46:57;;;;;;;6.10;2.00;;;18.10;99.90;;;;;;5053356;28;20033;-81
2023/08/03 02:49:22;;;;;;;7.35;2.17;;;18.10;99.90;;;;;;5053373;28;20033;-81
2023/08/03 02:51:48;;;;;;;5.78;2.03;;;18.20;99.90;;;;;;5053215;28;20410;-81
2023/08/03 02:54:13;;;;;;;7.00;2.00;;;18.20;99.90;;;;;;5048706;28;20029;-81
2023/08/03 02:56:39;;;;;;;6.32;1.70;;;18.20;99.90;;;;;;5032607;28;20030;-81
2023/08/03 02:59:05;;;;;;;7.65;2.22;;;18.20;99.90;;;;;;5051774;28;20033;-81
2023/08/03 03:01:31;;;;;;;7.10;2.30;;;18.20;99.90;;;;;;5052197;28;20037;-82
2023/08/03 03:03:56;;;;;;;6.70;1.90;;;18.20;99.90;;;;;;5053330;28;20029;-82
2023/08/03 03:06:22;;;;;;;8.70;1.90;;;18.30;99.90;;;;;;5051708;28;20048;-82
2023/08/03 03:08:48;;;;;;;7.88;2.13;;;18.30;99.90;;;;;;5051653;28;20112;-81
2023/08/03 03:11:13;;;;;;;7.60;2.13;;;18.30;99.90;;;;;;5052732;28;20025;-82
2023/08/03 03:13:39;;;;;;;7.45;2.15;;;18.30;99.90;;;;;;5051406;28;20064;-83
2023/08/03 03:16:04;;;;;;;9.27;2.28;;;18.20;99.90;;;;;;5051481;28;20113;-82
2023/08/03 03:18:30;;;;;;;7.13;1.83;;;18.20;99.90;;;;;;5044798;28;20037;-82
2023/08/03 03:20:56;;;;;;;7.50;2.75;;;18.20;99.90;;;;;;5032872;28;20041;-83
2023/08/03 03:23:21;;;;;;;8.80;3.10;;;18.20;99.90;;;;;;5015254;28;20033;-81
2023/08/03 03:25:47;;;;;;;7.70;2.60;;;18.20;99.90;;;;;;5032715;28;20059;-81
2023/08/03 03:28:12;;;;;;;4.53;1.30;;;18.20;99.90;;;;;;5032972;28;20428;-82
2023/08/03 03:30:38;;;;;;;3.25;1.05;;;18.20;99.90;;;;;;5031397;28;20037;-81
2023/08/03 03:33:04;;;;;;;7.50;0.80;;;18.20;99.90;;;;;;5032459;28;20037;-82
2023/08/03 03:35:29;;;;;;;3.65;0.60;;;18.20;99.90;;;;;;5032864;28;20475;-83
2023/08/03 03:37:55;;;;;;;2.75;0.40;;;18.20;99.90;;;;;;5033011;28;20048;-81
2023/08/03 03:40:21;;;;;;;1.90;0.40;;;18.20;99.90;;;;;;5034647;28;20033;-81
2023/08/03 03:42:46;;;;;;;3.17;0.60;;;18.20;99.90;;;;;;5036917;28;20104;-82
2023/08/03 03:45:12;;;;;;;3.33;0.90;;;18.20;99.90;;;;;;5036787;28;20204;-83
2023/08/03 03:47:37;;;;;;;2.42;0.60;;;18.30;99.90;;;;;;5036756;28;20030;-85
2023/08/03 03:50:03;;;;;;;2.45;0.52;;;18.30;99.90;;;;;;5036655;28;20056;-84
2023/08/03 03:52:29;;;;;;;2.47;0.55;;;18.20;99.90;;;;;;5036816;28;20080;-83
2023/08/03 03:54:55;;;;;;;1.65;0.50;;;18.20;99.90;;;;;;5037863;28;20113;-85
2023/08/03 03:57:20;;;;;;;2.60;1.00;;;18.20;99.90;;;;;;5038648;28;20041;-83
2023/08/03 03:59:46;;;;;;;4.28;0.68;;;18.30;99.90;;;;;;5036189;28;20044;-86
2023/08/03 04:02:11;;;;;;;3.13;1.10;;;18.30;99.90;;;;;;5020578;28;20037;-85
2023/08/03 04:04:37;;;;;;;2.50;1.00;;;18.30;99.90;;;;;;5036843;28;20036;-83
2023/08/03 04:07:03;;;;;;;3.30;0.90;;;18.30;99.90;;;;;;5036815;28;20047;-83
2023/08/03 04:09:28;;;;;;;2.85;0.77;;;18.20;99.90;;;;;;5035073;28;20025;-83
2023/08/03 04:11:54;;;;;;;3.65;0.70;;;18.20;99.90;;;;;;5040311;28;20415;-82
2023/08/03 04:14:20;;;;;;;3.70;0.95;;;18.10;99.90;;;;;;5056317;28;20529;-82
2023/08/03 04:16:46;;;;;;;2.67;0.70;;;18.00;99.90;;;;;;5056070;28;20037;-82
2023/08/03 04:19:11;;;;;;;2.97;0.88;;;17.90;99.90;;;;;;5056273;28;20044;-81
2023/08/03 04:21:37;;;;;;;5.32;0.70;;;17.90;99.90;;;;;;5056241;28;20125;-81
2023/08/03 04:24:03;;;;;;;4.50;1.10;;;17.90;99.90;;;;;;5054668;28;20029;-81
2023/08/03 04:26:28;;;;;;;6.63;1.00;;;17.80;99.90;;;;;;5055949;28;20057;-82
2023/08/03 04:28:54;;;;;;;4.72;1.30;;;17.80;99.90;;;;;;5054711;28;20083;-80
2023/08/03 04:31:20;;;;;;;4.72;1.60;;;17.90;99.90;;;;;;5038239;28;20033;-81
2023/08/03 04:33:45;;;;;;;5.68;1.50;;;17.80;99.90;;;;;;5054679;28;20067;-81
2023/08/03 04:36:11;;;;;;;7.70;2.05;;;17.80;99.90;;;;;;5055838;28;20035;-81
2023/08/03 04:38:37;;;;;;;6.72;1.75;;;17.80;99.90;;;;;;5038222;28;20110;-81
2023/08/03 04:41:02;;;;;;;6.93;1.90;;;17.80;99.90;;;;;;5055430;28;20044;-80
2023/08/03 04:43:28;;;;;;;4.97;1.63;;;17.80;99.90;;;;;;5055521;28;20043;-82
2023/08/03 04:45:54;;;;;;;9.40;2.47;;;17.70;99.90;;;;;;5055776;28;20025;-81
2023/08/03 04:48:20;;;;;;;4.25;1.30;;;17.70;99.90;;;;;;5054496;28;20033;-82
2023/08/03 04:50:46;;;;;;;5.72;1.60;;;17.70;99.90;;;;;;5055211;28;20091;-83
2023/08/03 04:53:11;;;;;;;7.03;1.45;;;17.70;99.90;;;;;;5055809;28;20435;-85
2023/08/03 04:55:37;;;;;;;5.30;1.20;;;17.80;99.90;;;;;;5055970;28;20032;-84
2023/08/03 04:58:03;;;;;;;5.90;1.20;;;17.80;99.90;;;;;;5055431;28;20107;-83
2023/08/03 05:00:28;;;;;;;5.28;1.00;;;17.70;99.90;;;;;;5054264;28;20060;-81
2023/08/03 05:02:54;;;;;;;8.20;0.70;;;17.70;99.90;;;;;;5055625;28;20029;-80
2023/08/03 05:05:20;;;;;;;7.68;2.25;;;17.70;99.90;;;;;;5053894;28;20510;-80
2023/08/03 05:07:45;;;;;;;10.30;1.10;;;17.70;99.90;;;;;;5055292;28;20389;-80
2023/08/03 05:10:11;;;;;;;10.23;0.90;;;17.70;99.90;;;;;;5055094;28;20017;-81
2023/08/03 05:12:39;;;;;;;4.10;0.85;;;17.70;99.90;;;;;;5054936;28;20043;-80
2023/08/03 05:15:05;;;;;;;8.55;1.05;;;17.70;99.90;;;;;;5053992;28;20095;-80
2023/08/03 05:17:31;;;;;;;7.63;0.90;;;17.70;99.90;;;;;;5054027;28;20033;-80
2023/08/03 05:19:56;;;;;;;5.20;0.90;;;17.70;99.90;;;;;;5054847;28;20132;-80
2023/08/03 05:22:22;;;;;;;5.50;0.90;;;17.70;99.90;;;;;;5053772;28;20029;-79
2023/08/03 05:24:48;;;;;;;5.45;0.70;;;17.80;99.90;;;;;;5055053;28;20032;-80
2023/08/03 05:27:14;;;;;;;8.95;0.73;;;17.80;99.90;;;;;;5054759;28;20393;-80
2023/08/03 05:29:42;;;;;;;5.28;0.77;;;17.80;99.90;;;;;;5053746;28;20025;-80
2023/08/03 05:32:08;;;;;;;4.22;0.57;;;17.80;99.90;;;;;;5054516;28;20489;-81
2023/08/03 05:34:34;;;;;;;4.95;0.60;;;17.80;99.90;;;;;;5054354;28;20032;-76
2023/08/03 05:37:00;;;;;;;4.68;0.50;;;17.80;99.90;;;;;;5053709;28;20382;-76
2023/08/03 05:39:26;;;;;;;7.25;1.25;;;17.80;99.90;;;;;;5053312;28;20041;-77
2023/08/03 05:41:52;;;;;;;4.32;0.88;;;17.80;99.90;;;;;;5052321;28;20037;-76
2023/08/03 05:44:17;;;;;;;4.30;0.40;;;17.70;99.90;;;;;;5042938;28;20052;-77
2023/08/03 05:46:44;;;;;;;5.93;0.70;;;17.70;99.90;;;;;;5044490;28;20428;-76
2023/08/03 05:49:11;;;;;;;6.45;0.57;;;17.70;99.90;;;;;;5045037;28;20022;-76
2023/08/03 05:51:39;;;;;;;8.52;0.95;;;17.70;99.90;;;;;;5041625;28;20116;-76
2023/08/03 05:54:05;;;;;;;3.78;0.50;;;17.70;99.90;;;;;;5044505;28;20025;-77
2023/08/03 05:56:35;;;;;;;7.22;0.70;;;17.70;99.90;;;;;;5044287;28;20168;-77
2023/08/03 05:59:02;;;;;;;8.30;0.63;;;17.70;99.90;;;;;;5044517;28;20021;-76
2023/08/03 06:01:28;;;;;;;7.90;0.85;;;17.70;99.90;;;;;;5043993;28;20087;-75
2023/08/03 06:03:54;;;;;;;6.82;1.10;;;17.70;99.90;;;;;;5042553;28;20029;-77
2023/08/03 06:06:21;;;;;;;10.10;1.10;;;17.70;99.90;;;;;;5045249;28;20458;-75
2023/08/03 06:08:56;;;;;;;10.55;1.15;;;17.80;99.90;;;;;;5042895;28;20057;-75
2023/08/03 06:11:22;;;;;;;7.80;1.10;;;17.80;99.90;;;;;;5043564;28;20025;-79
2023/08/03 06:13:48;;;;;;;7.00;0.70;;;17.80;99.90;;;;;;5044668;28;20028;-78
2023/08/03 06:16:15;;;;;;;7.47;1.30;;;17.80;99.90;;;;;;5044387;28;20331;-78
2023/08/03 06:18:49;;;;;;;7.55;1.13;;;17.70;99.90;;;;;;5041927;28;20064;-77
2023/08/03 06:21:17;;;;;;;10.43;1.15;;;17.80;99.90;;;;;;5042117;28;20089;-77
2023/08/03 06:23:48;;;;;;;8.75;1.15;;;17.70;99.90;;;;;;5043657;28;20100;-78
2023/08/03 06:26:16;;;;;;;7.25;0.85;;;17.70;99.90;;;;;;5033583;28;20037;-77
2023/08/03 06:28:43;;;;;;;6.75;0.98;;;17.60;99.90;;;;;;5033919;28;20037;-79
2023/08/03 06:31:15;;;;;;;7.28;0.85;;;17.60;99.90;;;;;;5052344;28;20037;-81
2023/08/03 06:33:43;;;;;;;6.13;0.75;;;17.70;99.90;;;;;;5053740;28;20025;-81
2023/08/03 06:36:20;;;;;;;6.80;0.80;;;17.60;99.90;;;;;;5053277;28;20142;-82
2023/08/03 06:38:48;;;;;;;8.27;1.30;;;17.60;99.90;;;;;;5052664;28;20041;-81
2023/08/03 06:41:13;;;;;;;6.68;1.10;;;17.60;99.90;;;;;;5052688;28;20560;-80
2023/08/03 06:43:39;;;;;;;8.35;1.10;;;17.50;99.90;;;;;;5045635;28;20128;-78
2023/08/03 06:46:05;;;;;;;7.40;1.80;;;17.60;99.90;;;;;;5051793;28;20370;-78
2023/08/03 06:48:32;;;;;;;7.40;1.13;;;17.60;99.90;;;;;;5053546;28;20094;-79
2023/08/03 06:50:59;;;;;;;9.70;1.23;;;17.60;99.90;;;;;;5047310;28;20033;-78
2023/08/03 06:53:25;;;;;;;7.60;0.80;;;17.60;99.90;;;;;;5039878;28;20072;-79
2023/08/03 06:55:51;;;;;;;11.52;1.85;;;17.60;99.90;;;;;;5042347;28;20029;-80
2023/08/03 06:58:17;;;;;;;8.60;1.20;;;17.70;99.90;;;;;;5041626;28;20033;-79
2023/08/03 07:00:44;;;;;;;10.82;1.13;;;17.70;99.90;;;;;;5043960;28;20079;-79
2023/08/03 07:03:11;;;;;;;7.88;1.15;;;17.70;99.90;;;;;;5041792;28;20017;-79
2023/08/03 07:05:37;;;;;;;7.55;1.27;;;17.70;99.90;;;;;;5042846;28;20112;-79
2023/08/03 07:08:03;;;;;;;9.93;1.30;;;17.70;99.90;;;;;;5042042;28;20037;-81
2023/08/03 07:10:29;;;;;;;8.27;0.80;;;17.70;99.90;;;;;;5041764;28;20020;-78
2023/08/03 07:12:54;;;;;;;6.28;0.82;;;17.80;99.90;;;;;;5042500;28;20099;-79
2023/08/03 07:15:20;;;;;;;6.80;0.73;;;17.70;99.90;;;;;;5046941;28;20465;-79
2023/08/03 07:17:46;;;;;;;10.57;1.50;;;17.70;99.90;;;;;;5023853;28;20037;-79
2023/08/03 07:20:12;;;;;;;6.05;0.60;;;17.80;99.90;;;;;;5042719;28;20497;-79
2023/08/03 07:22:38;;;;;;;9.27;0.98;;;17.70;99.90;;;;;;5031355;28;20036;-80
2023/08/03 07:25:04;;;;;;;5.70;1.27;;;17.70;99.90;;;;;;5033390;28;20084;-79
2023/08/03 07:27:31;;;;;;;5.75;0.85;;;17.70;99.90;;;;;;5048528;28;20045;-81
2023/08/03 07:29:56;;;;;;;5.72;0.80;;;17.70;99.90;;;;;;5038411;28;20044;-81
2023/08/03 07:32:23;;;;;;;7.47;1.02;;;17.70;99.90;;;;;;5035785;28;20021;-82
2023/08/03 07:34:48;;;;;;;8.93;1.48;;;17.70;99.90;;;;;;5035478;28;20033;-81
2023/08/03 07:37:14;;;;;;;6.15;1.00;;;17.70;99.90;;;;;;5035205;28;20087;-82
2023/08/03 07:39:40;;;;;;;4.85;0.80;;;17.70;99.90;;;;;;5035503;28;20034;-82
2023/08/03 07:42:06;;;;;;;8.63;0.65;;;17.70;99.90;;;;;;5040009;28;20038;-82
2023/08/03 07:44:32;;;;;;;6.28;0.65;;;17.70;99.90;;;;;;5047117;28;20135;-81
2023/08/03 07:46:57;;;;;;;6.57;0.73;;;17.70;99.90;;;;;;5051591;28;20056;-81
2023/08/03 07:49:23;;;;;;;5.07;0.63;;;17.70;99.90;;;;;;5051970;28;20520;-79
2023/08/03 07:51:49;;;;;;;9.50;1.20;;;17.70;99.90;;;;;;5041969;28;20034;-82
2023/08/03 07:54:15;;;;;;;6.78;0.60;;;17.70;99.90;;;;;;5035381;28;20127;-83
2023/08/03 07:56:41;;;;;;;8.10;1.20;;;17.70;99.90;;;;;;5026778;28;20397;-82
2023/08/03 07:59:07;;;;;;;4.93;0.80;;;17.80;99.90;;;;;;5042312;28;20021;-80
2023/08/03 08:01:33;;;;;;;6.95;1.15;;;17.80;99.90;;;;;;5034207;28;20167;-80
2023/08/03 08:03:59;;;;;;;5.30;0.68;;;17.80;99.90;;;;;;5039506;28;20060;-82
2023/08/03 08:06:24;;;;;;;4.72;0.75;;;17.90;99.90;;;;;;5032587;28;20412;-83
2023/08/03 08:08:51;;;;;;;4.30;0.63;;;17.90;99.90;;;;;;5053758;28;20029;-81
2023/08/03 08:11:18;;;;;;;5.13;0.70;;;17.80;99.90;;;;;;5044747;28;20033;-83
2023/08/03 08:13:44;;;;;;;5.50;0.50;;;17.80;99.90;;;;;;5053809;28;20044;-81
2023/08/03 08:16:11;;;;;;;4.65;0.55;;;17.80;99.90;;;;;;5053356;28;20029;-82
2023/08/03 08:18:38;;;;;;;4.20;0.90;;;17.90;99.90;;;;;;5046980;28;20114;-84
2023/08/03 08:21:08;;;;;;;4.55;0.70;;;17.90;99.90;;;;;;5044033;28;20076;-82
2023/08/03 08:23:35;;;;;;;4.60;0.90;;;17.90;99.90;;;;;;5042578;28;20548;-82
2023/08/03 08:26:00;;;;;;;5.97;0.73;;;18.00;99.90;;;;;;5039456;28;20138;-83
2023/08/03 08:28:27;;;;;;;3.25;0.68;;;18.00;99.90;;;;;;5042682;28;20080;-81
2023/08/03 08:30:53;;;;;;;6.28;1.02;;;18.00;99.90;;;;;;5054035;28;20049;-78
2023/08/03 08:33:19;;;;;;;7.03;0.80;;;18.00;99.90;;;;;;5056905;28;20059;-82
2023/08/03 08:35:48;;;;;;;6.03;1.13;;;18.00;99.90;;;;;;5055283;28;20025;-82
2023/08/03 08:38:15;;;;;;;6.80;1.20;;;18.00;99.90;;;;;;5056678;28;20083;-82
2023/08/03 08:40:41;;;;;;;4.65;1.13;;;17.90;99.90;;;;;;5054584;28;20119;-81
2023/08/03 08:43:08;;;;;;;10.30;1.38;;;18.00;99.90;;;;;;5056216;28;20029;-80
2023/08/03 08:45:38;;;;;;;5.20;1.13;;;18.00;99.90;;;;;;5054362;28;20037;-79
2023/08/03 08:48:05;;;;;;;6.40;1.83;;;18.00;99.90;;;;;;5055529;28;20052;-80
2023/08/03 08:50:32;;;;;;;4.72;0.73;;;18.00;99.90;;;;;;5055210;28;20056;-80
2023/08/03 08:52:58;;;;;;;8.15;1.10;;;18.10;99.90;;;;;;5054426;28;20087;-79
2023/08/03 08:55:27;;;;;;;5.50;1.02;;;18.10;99.90;;;;;;5055632;28;20037;-79
2023/08/03 08:57:53;;;;;;;6.95;1.20;;;18.20;99.90;;;;;;5055538;28;20037;-79
2023/08/03 09:00:20;;;;;;;5.78;1.25;;;18.20;99.90;;;;;;5055189;28;20029;-79
2023/08/03 09:02:46;;;;;;;7.55;1.10;;;18.30;99.90;;;;;;5055282;28;20496;-79
2023/08/03 09:05:20;;;;;;;6.95;1.27;;;18.40;99.90;;;;;;5055309;28;20029;-80
2023/08/03 09:08:06;;;;;;;9.63;1.20;;;18.60;99.90;;;;;;5046597;28;20037;-81
2023/08/03 09:10:50;;;;;;;5.07;1.13;;;18.70;99.90;;;;;;5050713;28;20029;-84
2023/08/03 09:13:35;;;;;;;5.82;0.95;;;18.80;99.90;;;;;;5059326;28;20029;-84
2023/08/03 09:16:02;;;;;;;7.50;1.20;;;18.90;99.90;;;;;;5057912;28;20040;-81
2023/08/03 09:18:30;;;;;;;5.30;1.42;;;18.90;99.90;;;;;;5056081;28;20033;-82
2023/08/03 09:21:12;;;;;;;5.32;1.05;;;18.90;99.90;;;;;;5055338;28;20056;-82
2023/08/03 09:23:39;;;;;;;7.47;2.40;;;19.00;99.90;;;;;;5055399;28;20500;-83
2023/08/03 09:26:05;;;;;;;5.40;1.25;;;19.20;99.90;;;;;;5057234;28;20041;-83
2023/08/03 09:28:42;;;;;;;8.32;1.92;;;19.30;99.90;;;;;;5055756;28;20041;-82
2023/08/03 09:31:08;;;;;;;4.70;1.35;;;19.40;99.90;;;;;;5056274;28;20037;-83
2023/08/03 09:33:35;;;;;;;6.55;1.55;;;19.50;99.90;;;;;;5055631;28;20029;-83
2023/08/03 09:36:10;;;;;;;3.67;1.90;;;19.60;99.90;;;;;;5054120;28;20036;-83
2023/08/03 09:38:37;;;;;;;6.32;2.13;;;19.70;99.90;;;;;;5055563;28;20120;-82
2023/08/03 09:41:02;;;;;;;6.20;2.22;;;20.00;99.90;;;;;;5055568;28;20025;-83
2023/08/03 09:43:28;;;;;;;7.72;1.83;;;20.10;99.90;;;;;;5055549;28;20083;-82
2023/08/03 09:45:55;;;;;;;4.72;1.38;;;20.10;99.90;;;;;;5055544;28;20100;-81
2023/08/03 09:48:22;;;;;;;6.40;1.52;;;20.10;99.90;;;;;;5053596;28;20362;-82
2023/08/03 09:51:08;;;;;;;6.32;1.40;;;20.20;99.90;;;;;;5052905;28;20078;-82
2023/08/03 09:53:38;;;;;;;5.97;1.58;;;20.30;99.90;;;;;;5054412;28;20052;-83
2023/08/03 09:56:05;;;;;;;5.35;1.60;;;20.40;99.90;;;;;;5054587;28;20036;-82
2023/08/03 09:58:42;;;;;;;7.03;1.42;;;20.40;99.90;;;;;;5049561;28;20060;-82
2023/08/03 10:01:12;;;;;;;6.80;1.50;;;20.30;99.90;;;;;;5038237;28;20064;-82
2023/08/03 10:03:41;;;;;;;6.38;1.73;;;20.30;99.90;;;;;;5052651;28;20033;-81
2023/08/03 10:06:10;;;;;;;9.52;1.70;;;20.30;99.90;;;;;;5042286;28;20096;-80
2023/08/03 10:08:52;;;;;;;6.50;1.50;;;20.30;99.90;;;;;;5046686;28;20067;-82
2023/08/03 10:11:20;;;;;;;6.13;1.42;;;20.20;99.90;;;;;;5053900;28;20025;-80
2023/08/03 10:13:47;;;;;;;4.55;1.40;;;20.10;99.90;;;;;;5054164;28;20037;-79
2023/08/03 10:16:17;;;;;;;5.03;1.17;;;20.00;99.90;;;;;;5052632;28;20389;-81
2023/08/03 10:18:44;;;;;;;4.43;1.10;;;20.00;99.90;;;;;;5052923;28;20516;-80
2023/08/03 10:21:10;;;;;;;5.13;1.20;;;19.90;99.90;;;;;;5036078;28;20401;-80
2023/08/03 10:23:38;;;;;;;6.85;1.80;;;20.10;99.90;;;;;;5053782;28;20090;-80
2023/08/03 10:26:06;;;;;;;6.03;1.15;;;20.30;99.90;;;;;;5054146;28;20040;-80
2023/08/03 10:28:52;;;;;;;6.85;1.45;;;20.50;99.90;;;;;;5054068;28;20155;-80
2023/08/03 10:31:19;;;;;;;7.68;1.40;;;20.80;99.90;;;;;;5054751;28;20037;-78
2023/08/03 10:33:49;;;;;;;7.47;1.75;;;20.90;99.90;;;;;;5054949;28;20111;-82
2023/08/03 10:39:03;;;;;;;7.68;1.17;;;20.90;99.90;;;;;;5054325;28;20128;-82
2023/08/03 10:41:36;;;;;;;7.90;1.33;;;20.80;99.90;;;;;;5052605;28;20043;-81
2023/08/03 10:44:05;;;;;;;4.10;0.80;;;20.70;99.90;;;;;;5053888;28;20033;-82
2023/08/03 10:46:52;;;;;;;5.93;0.57;;;20.50;99.90;;;;;;5054418;28;20037;-85
2023/08/03 10:49:20;;;;;;;4.65;0.60;;;20.20;99.90;;;;;;5053146;28;20122;-84
2023/08/03 10:52:07;;;;;;;4.28;0.43;;;20.20;99.90;;;;;;5053327;28;20033;-79
2023/08/03 10:54:32;;;;;;;4.30;0.88;;;20.00;99.90;;;;;;5052809;28;20473;-80
2023/08/03 10:57:07;;;;;;;3.58;0.80;;;20.00;99.90;;;;;;5050477;28;20048;-86
2023/08/03 10:59:39;;;;;;;5.38;1.00;;;20.10;99.90;;;;;;5037482;28;20141;-85
2023/08/03 11:02:14;;;;;;;2.70;0.50;;;20.00;99.90;;;;;;5044881;28;20099;-83
2023/08/03 11:04:41;;;;;;;5.57;0.60;;;20.00;99.90;;;;;;5047584;28;20021;-82
2023/08/03 11:07:10;;;;;;;4.03;0.50;;;20.10;99.90;;;;;;5053330;28;20048;-84
2023/08/03 11:09:36;;;;;;;2.97;0.60;;;20.20;99.90;;;;;;5051025;28;20033;-83
2023/08/03 11:12:07;;;;;;;4.55;0.63;;;20.20;99.90;;;;;;5052893;28;20088;-83
2023/08/03 11:14:35;;;;;;;4.78;0.65;;;20.30;99.90;;;;;;5053120;28;20033;-83
2023/08/03 11:17:01;;;;;;;4.00;1.05;;;20.30;99.90;;;;;;5053204;28;20135;-81
2023/08/03 11:19:32;;;;;;;5.78;1.10;;;20.40;99.90;;;;;;5052706;28;20067;-83
2023/08/03 11:22:01;;;;;;;4.70;0.60;;;20.40;99.90;;;;;;5053036;28;20043;-83
2023/08/03 11:24:31;;;;;;;6.75;0.90;;;20.40;99.90;;;;;;5053004;28;20059;-84
2023/08/03 11:26:57;;;;;;;5.40;0.77;;;20.20;99.90;;;;;;5052494;28;20493;-83
2023/08/03 11:29:23;;;;;;;4.38;0.85;;;20.20;99.90;;;;;;5052995;28;20491;-84
2023/08/03 11:31:50;;;;;;;5.07;1.00;;;20.00;99.90;;;;;;5051510;28;20025;-83
2023/08/03 11:34:16;;;;;;;5.00;0.90;;;20.00;99.90;;;;;;5035190;28;20543;-81
2023/08/03 11:36:49;;;;;;;5.68;0.90;;;20.00;99.90;;;;;;5053061;28;20079;-84
2023/08/03 11:39:15;;;;;;;4.97;1.00;;;19.90;99.90;;;;;;5053400;28;20037;-83
2023/08/03 11:41:42;;;;;;;4.50;1.10;;;19.90;99.90;;;;;;5052824;28;20102;-82
2023/08/03 11:44:08;;;;;;;5.13;1.15;;;19.90;99.90;;;;;;5053854;28;20030;-83
2023/08/03 11:46:34;;;;;;;3.92;1.15;;;20.00;99.90;;;;;;5052518;28;20033;-80
2023/08/03 11:49:02;;;;;;;6.10;1.50;;;19.90;99.90;;;;;;5056915;28;20045;-83
2023/08/03 11:51:37;;;;;;;6.50;1.50;;;19.90;99.90;;;;;;5055775;28;20029;-83
2023/08/03 11:54:04;;;;;;;5.32;0.90;;;19.90;99.90;;;;;;5042071;28;20029;-81
2023/08/03 11:56:30;;;;;;;5.78;1.20;;;19.90;99.90;;;;;;5032853;28;20045;-81
2023/08/03 11:59:01;;;;;;;5.57;1.00;;;19.90;99.90;;;;;;5031298;28;20442;-82
2023/08/03 12:01:27;;;;;;;6.32;0.80;;;19.90;99.90;;;;;;5001867;28;20116;-81
2023/08/03 12:04:10;;;;;;;6.40;0.90;;;19.80;99.90;;;;;;5036714;28;20021;-78
2023/08/03 12:06:49;;;;;;;9.35;3.42;;;19.80;99.90;;;;;;5041205;28;20044;-80
2023/08/03 12:09:25;;;;;;;5.47;1.15;;;19.90;99.90;;;;;;5056065;28;20060;-79
2023/08/03 12:12:00;;;;;;;5.05;1.38;;;19.90;99.90;;;;;;5046573;28;20477;-81
2023/08/03 12:14:26;;;;;;;5.47;1.63;;;20.00;99.90;;;;;;5036245;28;20486;-79
2023/08/03 12:16:51;;;;;;;7.45;2.63;;;20.00;99.90;;;;;;5036097;28;20040;-80
2023/08/03 12:19:18;;;;;;;4.05;0.60;;;20.00;99.90;;;;;;5035978;28;20037;-80
2023/08/03 12:21:44;;;;;;;6.75;1.65;;;20.00;99.90;;;;;;5035961;28;20034;-82
2023/08/03 12:24:10;;;;;;;3.80;0.40;;;20.00;99.90;;;;;;5054867;28;20032;-81
2023/08/03 12:26:36;;;;;;;3.33;0.43;;;19.90;99.90;;;;;;5054507;28;20068;-80
2023/08/03 12:29:01;;;;;;;3.65;0.63;;;20.00;99.90;;;;;;5055573;28;20029;-78
2023/08/03 12:31:29;;;;;;;6.72;0.77;;;20.20;99.90;;;;;;5053544;28;20140;-81
2023/08/03 12:33:56;;;;;;;2.55;0.50;;;20.40;99.90;;;;;;5048316;28;20511;-82
2023/08/03 12:36:22;;;;;;;2.95;0.38;;;20.30;99.90;;;;;;5057489;28;20035;-84
2023/08/03 12:38:47;;;;;;;1.50;0.20;;;20.20;99.90;;;;;;5051503;28;20497;-84
2023/08/03 12:41:13;;;;;;;1.90;0.20;;;20.10;99.90;;;;;;5049748;28;20021;-84
2023/08/03 12:43:39;;;;;;;2.78;0.20;;;20.00;99.90;;;;;;5061347;28;20021;-84
2023/08/03 12:46:05;;;;;;;3.22;0.32;;;20.00;99.90;;;;;;5062429;28;20112;-84
2023/08/03 12:48:30;;;;;;;1.70;0.20;;;19.90;99.90;;;;;;5059559;28;20039;-84